createdAt,value
2018-07-03T00:00:41.441Z,0.00
2018-07-03T00:01:41.478Z,0.00
2018-07-03T00:02:41.519Z,0.00
2018-07-03T00:03:41.550Z,0.00
2018-07-03T00:04:41.606Z,0.00
2018-07-03T00:05:41.623Z,0.00
2018-07-03T00:07:42.525Z,0.00
2018-07-03T00:08:41.731Z,0.00
2018-07-03T00:09:41.787Z,0.00
2018-07-03T00:10:42.027Z,0.00
2018-07-03T00:11:41.841Z,0.00
2018-07-03T00:12:41.896Z,0.00
2018-07-03T00:13:41.931Z,0.00
2018-07-03T00:14:42.576Z,0.00
2018-07-03T00:20:42.590Z,0.00
2018-07-03T00:22:42.261Z,0.00
2018-07-03T00:26:33.610Z,0.00
2018-07-03T00:40:29.300Z,0.00
2018-07-03T00:41:29.964Z,0.00
2018-07-03T00:45:32.910Z,0.00
2018-07-03T00:46:29.536Z,0.00
2018-07-03T00:48:29.812Z,0.00
2018-07-03T00:49:29.622Z,0.00
2018-07-03T00:50:29.659Z,0.00
2018-07-03T00:51:29.695Z,0.00
2018-07-03T00:52:29.735Z,0.00
2018-07-03T00:54:29.804Z,0.00
2018-07-03T00:55:29.866Z,0.00
2018-07-03T00:56:30.299Z,0.00
2018-07-03T00:57:30.132Z,0.00
2018-07-03T00:59:29.999Z,0.00
2018-07-03T01:00:30.021Z,0.00
2018-07-03T01:01:30.077Z,0.00
2018-07-03T01:02:30.110Z,0.00
2018-07-03T01:03:30.129Z,0.00
2018-07-03T01:04:30.165Z,0.00
2018-07-03T01:05:30.199Z,0.00
2018-07-03T01:06:30.256Z,0.00
2018-07-03T01:07:30.272Z,0.00
2018-07-03T01:08:30.309Z,0.00
2018-07-03T01:09:30.363Z,0.00
2018-07-03T01:10:30.398Z,0.00
2018-07-03T01:11:30.416Z,0.00
2018-07-03T01:12:30.470Z,0.00
2018-07-03T01:13:31.519Z,0.00
2018-07-03T01:14:30.524Z,0.00
2018-07-03T01:16:30.597Z,0.00
2018-07-03T01:17:30.853Z,0.00
2018-07-03T01:19:30.929Z,0.00
2018-07-03T01:20:30.740Z,0.00
2018-07-03T01:21:30.794Z,0.00
2018-07-03T01:22:30.811Z,0.00
2018-07-03T01:23:30.848Z,0.00
2018-07-03T01:24:30.905Z,0.00
2018-07-03T01:25:30.920Z,0.00
2018-07-03T01:26:30.956Z,0.00
2018-07-03T01:27:30.993Z,0.00
2018-07-03T01:28:31.029Z,0.00
2018-07-03T01:29:31.064Z,0.00
2018-07-03T01:30:31.425Z,0.00
2018-07-03T01:31:31.136Z,0.00
2018-07-03T01:32:31.173Z,0.00
2018-07-03T01:33:31.226Z,0.00
2018-07-03T01:34:31.253Z,0.00
2018-07-03T01:35:31.299Z,0.00
2018-07-03T01:36:31.335Z,0.00
2018-07-03T01:37:31.371Z,0.00
2018-07-03T01:38:31.406Z,0.00
2018-07-03T01:39:31.443Z,0.00
2018-07-03T01:40:31.464Z,0.00
2018-07-03T01:41:31.516Z,0.00
2018-07-03T01:42:31.553Z,0.00
2018-07-03T01:43:31.567Z,0.00
2018-07-03T01:44:31.625Z,0.00
2018-07-03T01:45:31.659Z,0.00
2018-07-03T01:47:32.039Z,0.00
2018-07-03T01:48:31.749Z,0.00
2018-07-03T01:49:31.784Z,0.00
2018-07-03T01:50:31.819Z,0.00
2018-07-03T01:51:32.180Z,0.00
2018-07-03T01:52:31.892Z,0.00
2018-07-03T01:53:31.928Z,0.00
2018-07-03T01:54:31.964Z,0.00
2018-07-03T01:55:32.000Z,0.00
2018-07-03T01:56:32.037Z,0.00
2018-07-03T01:57:32.072Z,0.00
2018-07-03T01:58:32.410Z,0.00
2018-07-03T01:59:32.467Z,0.00
2018-07-03T02:00:32.197Z,0.00
2018-07-03T02:01:32.214Z,0.00
2018-07-03T02:02:32.273Z,0.00
2018-07-03T02:03:32.287Z,0.00
2018-07-03T02:04:32.525Z,0.00
2018-07-03T02:05:32.358Z,0.00
2018-07-03T02:06:32.394Z,0.00
2018-07-03T02:07:32.431Z,0.00
2018-07-03T02:08:32.466Z,0.00
2018-07-03T02:09:32.505Z,0.00
2018-07-03T02:10:32.535Z,0.00
2018-07-03T02:11:32.574Z,0.00
2018-07-03T02:12:32.609Z,0.00
2018-07-03T02:13:32.644Z,0.00
2018-07-03T02:14:32.680Z,0.00
2018-07-03T02:15:32.717Z,0.00
2018-07-03T02:16:32.752Z,0.00
2018-07-03T02:17:32.788Z,0.00
2018-07-03T02:18:32.821Z,0.00
2018-07-03T02:19:32.859Z,0.00
2018-07-03T02:20:33.219Z,0.00
2018-07-03T02:21:32.930Z,0.00
2018-07-03T02:22:32.966Z,0.00
2018-07-03T02:23:33.002Z,0.00
2018-07-03T02:24:33.037Z,0.00
2018-07-03T02:25:33.073Z,0.00
2018-07-03T02:26:33.107Z,0.00
2018-07-03T02:27:33.144Z,0.00
2018-07-03T02:28:33.183Z,0.00
2018-07-03T02:29:33.214Z,0.00
2018-07-03T02:30:33.254Z,0.00
2018-07-03T02:31:33.286Z,0.00
2018-07-03T02:32:33.546Z,0.00
2018-07-03T02:33:33.378Z,0.00
2018-07-03T02:34:33.397Z,0.00
2018-07-03T02:35:33.428Z,0.00
2018-07-03T02:36:33.465Z,0.00
2018-07-03T02:37:33.503Z,0.00
2018-07-03T02:38:33.535Z,0.00
2018-07-03T02:39:33.571Z,0.00
2018-07-03T02:40:33.606Z,0.00
2018-07-03T02:41:33.664Z,0.00
2018-07-03T02:42:33.677Z,0.00
2018-07-03T02:43:33.738Z,0.00
2018-07-03T02:44:33.770Z,0.00
2018-07-03T02:45:33.783Z,0.00
2018-07-03T02:46:33.821Z,0.00
2018-07-03T02:47:34.179Z,0.00
2018-07-03T02:48:34.215Z,0.00
2018-07-03T02:49:34.961Z,0.00
2018-07-03T02:50:33.984Z,0.00
2018-07-03T02:51:34.001Z,0.00
2018-07-03T02:52:34.052Z,0.00
2018-07-03T02:53:34.088Z,0.00
2018-07-03T02:54:35.642Z,4.00
2018-07-03T02:55:34.159Z,4.00
2018-07-03T02:57:34.429Z,4.00
2018-07-03T02:58:34.247Z,4.00
2018-07-03T02:59:34.499Z,4.00
2018-07-03T03:00:34.335Z,4.00
2018-07-03T03:01:34.368Z,4.00
2018-07-03T03:03:34.439Z,8.00
2018-07-03T03:04:34.786Z,8.00
2018-07-03T03:05:34.507Z,8.00
2018-07-03T03:06:34.563Z,12.00
2018-07-03T03:07:34.582Z,12.00
2018-07-03T03:08:34.623Z,12.00
2018-07-03T03:09:34.632Z,16.00
2018-07-03T03:10:34.698Z,20.00
2018-07-03T03:11:34.722Z,20.00
2018-07-03T03:12:34.758Z,24.00
2018-07-03T03:14:34.832Z,36.00
2018-07-03T03:15:34.862Z,40.00
2018-07-03T03:16:34.900Z,44.00
2018-07-03T03:17:34.935Z,52.00
2018-07-03T03:18:34.969Z,56.00
2018-07-03T03:19:36.422Z,64.00
2018-07-03T03:22:35.168Z,88.00
2018-07-03T03:23:35.127Z,100.00
2018-07-03T03:26:35.455Z,132.00
2018-07-03T03:29:35.766Z,176.00
2018-07-03T03:30:35.396Z,192.00
2018-07-03T03:32:35.748Z,224.00
2018-07-03T03:33:35.501Z,248.00
2018-07-03T03:34:35.733Z,264.00
2018-07-03T03:35:35.774Z,288.00
2018-07-03T03:36:35.604Z,308.00
2018-07-03T03:37:36.042Z,328.00
2018-07-03T03:40:35.726Z,396.00
2018-07-03T03:42:36.019Z,444.00
2018-07-03T03:46:35.958Z,540.00
2018-07-03T03:48:36.740Z,604.00
2018-07-03T03:49:36.972Z,636.00
2018-07-03T03:51:36.132Z,704.00
2018-07-03T03:52:36.572Z,740.00
2018-07-03T03:55:36.655Z,836.00
2018-07-03T03:56:36.507Z,868.00
2018-07-03T03:57:36.321Z,896.00
2018-07-03T03:58:36.375Z,928.00
2018-07-03T04:00:38.573Z,992.00
2018-07-03T04:01:36.683Z,1024.00
2018-07-03T04:03:36.760Z,1092.00
2018-07-03T04:04:36.598Z,1124.00
2018-07-03T04:05:36.622Z,1152.00
2018-07-03T04:06:36.856Z,1184.00
2018-07-03T04:08:36.928Z,1248.00
2018-07-03T04:09:36.962Z,1284.00
2018-07-03T04:10:37.507Z,1320.00
2018-07-03T04:11:37.237Z,1360.00
2018-07-03T04:12:37.378Z,1404.00
2018-07-03T04:13:37.104Z,1448.00
2018-07-03T04:14:37.137Z,1496.00
2018-07-03T04:15:37.374Z,1544.00
2018-07-03T04:27:37.392Z,2076.00
2018-07-03T04:28:37.427Z,2120.00
2018-07-03T04:32:37.876Z,2364.00
2018-07-03T04:33:38.011Z,2420.00
2018-07-03T04:37:38.150Z,2580.00
2018-07-03T04:38:37.981Z,2636.00
2018-07-03T04:40:37.852Z,2736.00
2018-07-03T04:41:37.884Z,2776.00
2018-07-03T04:45:38.227Z,2944.00
2018-07-03T04:48:38.135Z,3056.00
2018-07-03T04:49:38.169Z,3100.00
2018-07-03T04:52:38.274Z,3232.00
2018-07-03T04:53:38.291Z,3284.00
2018-07-03T04:54:38.327Z,3336.00
2018-07-03T04:55:38.379Z,3380.00
2018-07-03T04:56:38.399Z,3428.00
2018-07-03T04:57:38.455Z,3476.00
2018-07-03T04:58:38.469Z,3516.00
2018-07-03T04:59:38.506Z,3548.00
2018-07-03T05:00:38.539Z,3580.00
2018-07-03T05:01:38.576Z,3616.00
2018-07-03T05:02:38.612Z,3652.00
2018-07-03T05:03:38.648Z,3688.00
2018-07-03T05:04:38.683Z,3712.00
2018-07-03T05:05:38.740Z,3716.00
2018-07-03T05:06:38.754Z,3704.00
2018-07-03T05:07:38.809Z,3760.00
2018-07-03T05:08:38.847Z,3836.00
2018-07-03T05:09:38.861Z,3820.00
2018-07-03T05:10:38.898Z,3780.00
2018-07-03T05:11:38.936Z,3792.00
2018-07-03T05:12:38.988Z,3836.00
2018-07-03T05:13:39.005Z,3904.00
2018-07-03T05:14:39.040Z,4004.00
2018-07-03T05:15:39.078Z,4140.00
2018-07-03T05:16:39.115Z,4304.00
2018-07-03T05:17:39.149Z,4508.00
2018-07-03T05:18:39.185Z,4784.00
2018-07-03T05:19:39.222Z,5124.00
2018-07-03T05:20:39.258Z,5400.00
2018-07-03T05:21:39.293Z,5532.00
2018-07-03T05:22:39.330Z,5548.00
2018-07-03T05:23:39.367Z,5524.00
2018-07-03T05:24:39.457Z,5508.00
2018-07-03T05:25:39.438Z,5524.00
2018-07-03T05:26:39.475Z,5568.00
2018-07-03T05:27:39.512Z,5628.00
2018-07-03T05:28:39.549Z,5684.00
2018-07-03T05:29:39.585Z,5696.00
2018-07-03T05:30:39.621Z,5656.00
2018-07-03T05:31:39.745Z,5604.00
2018-07-03T05:32:39.694Z,5572.00
2018-07-03T05:33:39.730Z,5568.00
2018-07-03T05:34:39.969Z,5592.00
2018-07-03T05:35:39.806Z,5636.00
2018-07-03T05:36:39.841Z,5696.00
2018-07-03T05:37:39.876Z,5740.00
2018-07-03T05:38:39.914Z,5788.00
2018-07-03T05:39:39.951Z,5848.00
2018-07-03T05:40:39.988Z,5940.00
2018-07-03T05:41:40.025Z,6048.00
2018-07-03T05:42:40.062Z,6184.00
2018-07-03T05:43:40.099Z,6328.00
2018-07-03T05:44:40.135Z,6464.00
2018-07-03T05:45:40.171Z,6616.00
2018-07-03T05:46:40.209Z,6756.00
2018-07-03T05:47:40.247Z,6896.00
2018-07-03T05:48:40.284Z,7032.00
2018-07-03T05:49:40.320Z,7220.00
2018-07-03T05:50:40.358Z,7404.00
2018-07-03T05:51:40.394Z,7608.00
2018-07-03T05:52:40.432Z,7820.00
2018-07-03T05:53:40.471Z,7996.00
2018-07-03T05:54:40.506Z,8468.00
2018-07-03T05:55:40.549Z,8400.00
2018-07-03T05:56:40.581Z,8464.00
2018-07-03T05:57:40.617Z,8504.00
2018-07-03T05:58:40.656Z,8612.00
2018-07-03T05:59:40.692Z,8564.00
2018-07-03T06:00:40.731Z,8520.00
2018-07-03T06:01:40.768Z,8516.00
2018-07-03T06:02:40.806Z,8208.00
2018-07-03T06:03:40.843Z,8100.00
2018-07-03T06:04:40.880Z,8568.00
2018-07-03T06:05:40.916Z,8640.00
2018-07-03T06:06:40.960Z,8776.00
2018-07-03T06:07:40.995Z,8968.00
2018-07-03T06:08:41.078Z,9108.00
2018-07-03T06:09:41.069Z,9108.00
2018-07-03T06:10:41.107Z,9132.00
2018-07-03T06:11:41.146Z,9148.00
2018-07-03T06:12:41.183Z,9176.00
2018-07-03T06:13:41.221Z,9212.00
2018-07-03T06:14:41.259Z,9188.00
2018-07-03T06:15:41.296Z,9268.00
2018-07-03T06:16:41.336Z,9404.00
2018-07-03T06:17:41.374Z,9596.00
2018-07-03T06:18:41.411Z,9864.00
2018-07-03T06:19:41.451Z,10224.00
2018-07-03T06:20:41.490Z,10700.00
2018-07-03T06:21:41.527Z,11136.00
2018-07-03T06:22:41.584Z,11384.00
2018-07-03T06:23:41.605Z,11332.00
2018-07-03T06:24:41.644Z,11104.00
2018-07-03T06:25:41.682Z,10852.00
2018-07-03T06:26:41.721Z,10676.00
2018-07-03T06:27:41.758Z,10628.00
2018-07-03T06:28:41.808Z,10632.00
2018-07-03T06:29:41.837Z,10700.00
2018-07-03T06:30:41.876Z,10724.00
2018-07-03T06:31:41.914Z,10876.00
2018-07-03T06:32:41.954Z,10972.00
2018-07-03T06:33:41.992Z,10548.00
2018-07-03T06:34:42.031Z,10388.00
2018-07-03T06:35:42.070Z,10340.00
2018-07-03T06:36:42.112Z,10404.00
2018-07-03T06:37:42.231Z,10496.00
2018-07-03T06:38:42.188Z,10528.00
2018-07-03T06:39:42.228Z,10564.00
2018-07-03T06:40:42.267Z,10572.00
2018-07-03T06:41:42.307Z,10540.00
2018-07-03T06:42:42.344Z,10516.00
2018-07-03T06:43:42.384Z,10460.00
2018-07-03T06:44:42.481Z,10404.00
2018-07-03T06:45:42.461Z,10392.00
2018-07-03T06:46:42.501Z,10436.00
2018-07-03T06:47:42.540Z,10532.00
2018-07-03T06:48:42.579Z,10736.00
2018-07-03T06:49:42.618Z,11080.00
2018-07-03T06:50:42.755Z,10896.00
2018-07-03T06:51:42.737Z,11152.00
2018-07-03T06:52:42.741Z,11396.00
2018-07-03T06:53:42.802Z,11356.00
2018-07-03T06:54:42.816Z,11752.00
2018-07-03T06:55:42.855Z,12284.00
2018-07-03T06:56:42.898Z,12712.00
2018-07-03T06:57:42.934Z,13136.00
2018-07-03T06:58:42.973Z,13432.00
2018-07-03T06:59:43.013Z,13956.00
2018-07-03T07:00:43.052Z,13168.00
2018-07-03T07:01:43.092Z,12832.00
2018-07-03T07:02:43.132Z,12688.00
2018-07-03T07:03:43.171Z,12856.00
2018-07-03T07:04:43.211Z,13080.00
2018-07-03T07:05:43.252Z,13188.00
2018-07-03T07:06:43.294Z,13136.00
2018-07-03T07:07:43.339Z,12968.00
2018-07-03T07:08:43.454Z,12720.00
2018-07-03T07:09:43.411Z,13300.00
2018-07-03T07:10:43.449Z,12944.00
2018-07-03T07:11:43.489Z,12668.00
2018-07-03T07:12:43.530Z,12164.00
2018-07-03T07:13:43.569Z,12184.00
2018-07-03T07:14:43.609Z,12264.00
2018-07-03T07:15:43.649Z,12408.00
2018-07-03T07:16:43.689Z,12480.00
2018-07-03T07:17:43.728Z,12540.00
2018-07-03T07:18:43.767Z,12620.00
2018-07-03T07:19:43.808Z,12588.00
2018-07-03T07:20:43.848Z,12656.00
2018-07-03T07:21:43.887Z,12716.00
2018-07-03T07:22:43.931Z,12696.00
2018-07-03T07:23:43.968Z,12732.00
2018-07-03T07:24:44.008Z,12852.00
2018-07-03T07:25:44.048Z,12932.00
2018-07-03T07:26:44.088Z,13012.00
2018-07-03T07:27:44.127Z,12972.00
2018-07-03T07:28:44.168Z,13128.00
2018-07-03T07:29:44.207Z,13176.00
2018-07-03T07:30:44.247Z,13188.00
2018-07-03T07:31:44.287Z,13240.00
2018-07-03T07:32:44.335Z,13376.00
2018-07-03T07:33:44.367Z,13672.00
2018-07-03T07:34:44.407Z,14188.00
2018-07-03T07:35:44.448Z,14300.00
2018-07-03T07:36:44.815Z,14400.00
2018-07-03T07:37:44.528Z,14472.00
2018-07-03T07:38:44.569Z,14612.00
2018-07-03T07:39:44.612Z,15016.00
2018-07-03T07:40:44.649Z,15140.00
2018-07-03T07:41:44.689Z,14368.00
2018-07-03T07:42:44.759Z,13680.00
2018-07-03T07:43:44.769Z,13280.00
2018-07-03T07:44:44.809Z,13352.00
2018-07-03T07:45:44.849Z,13628.00
2018-07-03T07:46:44.891Z,13336.00
2018-07-03T07:47:44.931Z,12460.00
2018-07-03T07:48:44.971Z,11320.00
2018-07-03T07:49:45.016Z,10480.00
2018-07-03T07:50:45.053Z,10016.00
2018-07-03T07:51:45.093Z,9832.00
2018-07-03T07:52:45.132Z,9848.00
2018-07-03T07:53:45.173Z,10020.00
2018-07-03T07:54:45.212Z,10316.00
2018-07-03T07:55:45.252Z,10596.00
2018-07-03T07:56:45.292Z,10820.00
2018-07-03T07:57:45.381Z,10952.00
2018-07-03T07:58:45.373Z,11108.00
2018-07-03T07:59:45.412Z,11296.00
2018-07-03T08:00:45.655Z,11576.00
2018-07-03T08:01:45.517Z,11968.00
2018-07-03T08:02:45.533Z,12376.00
2018-07-03T08:03:45.593Z,12668.00
2018-07-03T08:04:45.616Z,12820.00
2018-07-03T08:05:45.656Z,12808.00
2018-07-03T08:06:45.760Z,12708.00
2018-07-03T08:07:45.734Z,12660.00
2018-07-03T08:08:45.776Z,12648.00
2018-07-03T08:09:45.813Z,12748.00
2018-07-03T08:10:45.853Z,12908.00
2018-07-03T08:11:45.893Z,12636.00
2018-07-03T08:12:45.934Z,12768.00
2018-07-03T08:13:45.974Z,12816.00
2018-07-03T08:14:46.014Z,13116.00
2018-07-03T08:15:46.054Z,13620.00
2018-07-03T08:16:46.098Z,13840.00
2018-07-03T08:17:46.134Z,13760.00
2018-07-03T08:18:46.174Z,13484.00
2018-07-03T08:19:46.215Z,13228.00
2018-07-03T08:20:46.255Z,13092.00
2018-07-03T08:21:46.305Z,12964.00
2018-07-03T08:22:46.344Z,13052.00
2018-07-03T08:23:46.377Z,13076.00
2018-07-03T08:24:46.417Z,13004.00
2018-07-03T08:25:46.455Z,12900.00
2018-07-03T08:26:46.500Z,12904.00
2018-07-03T08:27:46.538Z,12884.00
2018-07-03T08:28:46.577Z,12992.00
2018-07-03T08:29:46.617Z,13004.00
2018-07-03T08:30:46.660Z,12652.00
2018-07-03T08:31:46.739Z,12352.00
2018-07-03T08:32:46.738Z,12332.00
2018-07-03T08:33:46.782Z,12500.00
2018-07-03T08:34:46.818Z,12848.00
2018-07-03T08:35:46.859Z,13124.00
2018-07-03T08:36:46.900Z,13396.00
2018-07-03T08:37:46.966Z,13600.00
2018-07-03T08:38:46.979Z,13804.00
2018-07-03T08:39:47.020Z,14068.00
2018-07-03T08:40:47.061Z,14324.00
2018-07-03T08:41:47.099Z,14352.00
2018-07-03T08:42:47.176Z,14196.00
2018-07-03T08:43:47.181Z,14068.00
2018-07-03T08:44:47.221Z,14032.00
2018-07-03T08:45:47.261Z,14096.00
2018-07-03T08:46:47.308Z,14232.00
2018-07-03T08:47:47.343Z,14488.00
2018-07-03T08:48:47.383Z,14600.00
2018-07-03T08:49:47.422Z,14644.00
2018-07-03T08:50:47.463Z,14612.00
2018-07-03T08:51:47.613Z,14528.00
2018-07-03T08:52:47.544Z,14404.00
2018-07-03T08:53:47.583Z,14708.00
2018-07-03T08:54:47.627Z,14368.00
2018-07-03T08:55:47.665Z,14264.00
2018-07-03T08:56:47.705Z,14584.00
2018-07-03T08:57:47.750Z,14864.00
2018-07-03T08:58:47.785Z,15652.00
2018-07-03T08:59:47.826Z,15764.00
2018-07-03T09:00:47.880Z,16448.00
2018-07-03T09:01:47.908Z,16736.00
2018-07-03T09:02:47.949Z,16928.00
2018-07-03T09:03:48.017Z,17184.00
2018-07-03T09:04:48.065Z,17600.00
2018-07-03T09:05:54.339Z,18208.00
2018-07-03T09:06:48.111Z,18752.00
2018-07-03T09:07:48.151Z,19232.00
2018-07-03T09:08:48.194Z,19808.00
2018-07-03T09:09:48.231Z,20416.00
2018-07-03T09:10:48.272Z,20960.00
2018-07-03T09:11:48.315Z,21216.00
2018-07-03T09:12:48.357Z,21472.00
2018-07-03T09:13:48.396Z,21888.00
2018-07-03T09:14:48.437Z,22112.00
2018-07-03T09:15:48.483Z,22144.00
2018-07-03T09:16:48.548Z,21984.00
2018-07-03T09:17:48.572Z,21856.00
2018-07-03T09:18:48.607Z,21856.00
2018-07-03T09:19:48.645Z,21824.00
2018-07-03T09:20:48.687Z,21568.00
2018-07-03T09:21:48.727Z,21056.00
2018-07-03T09:22:48.771Z,20416.00
2018-07-03T09:23:48.815Z,20096.00
2018-07-03T09:24:48.852Z,20064.00
2018-07-03T09:25:48.895Z,20096.00
2018-07-03T09:26:48.936Z,20256.00
2018-07-03T09:27:48.980Z,20384.00
2018-07-03T09:28:49.021Z,20448.00
2018-07-03T09:29:49.063Z,20704.00
2018-07-03T09:30:49.108Z,21056.00
2018-07-03T09:31:49.147Z,21504.00
2018-07-03T09:32:49.190Z,21984.00
2018-07-03T09:33:49.248Z,22336.00
2018-07-03T09:34:49.274Z,22592.00
2018-07-03T09:35:49.316Z,22720.00
2018-07-03T09:36:49.532Z,23296.00
2018-07-03T09:37:49.400Z,23872.00
2018-07-03T09:38:49.443Z,24928.00
2018-07-03T09:39:49.485Z,25408.00
2018-07-03T09:40:49.531Z,25952.00
2018-07-03T09:41:49.573Z,26080.00
2018-07-03T09:42:49.612Z,26240.00
2018-07-03T09:43:49.660Z,26848.00
2018-07-03T09:44:49.697Z,27296.00
2018-07-03T09:45:49.744Z,27552.00
2018-07-03T09:46:49.784Z,27520.00
2018-07-03T09:47:49.825Z,27680.00
2018-07-03T09:48:49.882Z,27808.00
2018-07-03T09:49:49.912Z,28032.00
2018-07-03T09:50:49.956Z,28480.00
2018-07-03T09:51:49.998Z,28896.00
2018-07-03T09:52:50.042Z,29184.00
2018-07-03T09:53:50.085Z,29504.00
2018-07-03T09:54:50.238Z,29824.00
2018-07-03T09:55:50.171Z,29856.00
2018-07-03T09:56:50.214Z,29824.00
2018-07-03T09:57:50.308Z,29792.00
2018-07-03T09:58:50.301Z,29760.00
2018-07-03T09:59:50.345Z,29536.00
2018-07-03T10:00:50.388Z,29248.00
2018-07-03T10:01:50.431Z,29088.00
2018-07-03T10:02:50.473Z,28768.00
2018-07-03T10:03:50.518Z,28256.00
2018-07-03T10:04:50.561Z,27456.00
2018-07-03T10:05:50.607Z,26560.00
2018-07-03T10:06:50.646Z,25792.00
2018-07-03T10:07:50.691Z,25376.00
2018-07-03T10:08:50.737Z,25120.00
2018-07-03T10:09:50.778Z,24992.00
2018-07-03T10:10:50.821Z,24800.00
2018-07-03T10:11:50.865Z,24512.00
2018-07-03T10:12:50.910Z,24192.00
2018-07-03T10:13:50.950Z,24032.00
2018-07-03T10:14:50.995Z,23968.00
2018-07-03T10:15:51.038Z,24064.00
2018-07-03T10:16:51.081Z,24352.00
2018-07-03T10:17:51.122Z,24416.00
2018-07-03T10:18:51.209Z,24640.00
2018-07-03T10:19:51.214Z,24864.00
2018-07-03T10:20:51.252Z,24960.00
2018-07-03T10:21:51.296Z,25152.00
2018-07-03T10:22:51.338Z,25408.00
2018-07-03T10:23:51.381Z,25600.00
2018-07-03T10:24:51.424Z,25536.00
2018-07-03T10:25:51.467Z,25536.00
2018-07-03T10:26:51.508Z,25472.00
2018-07-03T10:27:51.553Z,25600.00
2018-07-03T10:28:51.595Z,25600.00
2018-07-03T10:29:51.637Z,25792.00
2018-07-03T10:30:51.684Z,26048.00
2018-07-03T10:31:51.725Z,26560.00
2018-07-03T10:32:51.772Z,26976.00
2018-07-03T10:33:51.808Z,27296.00
2018-07-03T10:34:51.852Z,27680.00
2018-07-03T10:35:51.896Z,28128.00
2018-07-03T10:36:51.939Z,28928.00
2018-07-03T10:37:51.981Z,29952.00
2018-07-03T10:38:52.027Z,30880.00
2018-07-03T10:39:52.067Z,31680.00
2018-07-03T10:40:52.112Z,32480.00
2018-07-03T10:41:52.153Z,33216.00
2018-07-03T10:42:52.197Z,34112.00
2018-07-03T10:43:52.248Z,35296.00
2018-07-03T10:44:52.284Z,38272.00
2018-07-03T10:45:52.326Z,44256.00
2018-07-03T10:46:52.370Z,56736.00
2018-07-03T10:47:52.415Z,68512.00
2018-07-03T10:48:52.510Z,75968.00
2018-07-03T10:49:52.502Z,78912.00
2018-07-03T10:50:52.546Z,79616.00
2018-07-03T10:51:52.593Z,81568.00
2018-07-03T10:52:52.637Z,81312.00
2018-07-03T10:53:52.681Z,80416.00
2018-07-03T10:54:52.727Z,80320.00
2018-07-03T10:55:52.774Z,85376.00
2018-07-03T10:56:52.821Z,83488.00
2018-07-03T10:57:52.867Z,85120.00
2018-07-03T10:59:52.962Z,77088.00
2018-07-03T11:00:55.835Z,81376.00
2018-07-03T11:01:56.893Z,89568.00
2018-07-03T11:02:54.117Z,91008.00
2018-07-03T11:03:53.154Z,91328.00
2018-07-03T11:04:53.202Z,89472.00
2018-07-03T11:05:53.252Z,77376.00
2018-07-03T11:06:53.300Z,60736.00
2018-07-03T11:07:53.351Z,80640.00
2018-07-03T11:08:53.400Z,60864.00
2018-07-03T11:09:53.449Z,63392.00
2018-07-03T11:10:53.498Z,59264.00
2018-07-03T11:11:53.547Z,49024.00
2018-07-03T11:12:53.600Z,46752.00
2018-07-03T11:13:53.715Z,44864.00
2018-07-03T11:14:53.695Z,48128.00
2018-07-03T11:15:53.748Z,47360.00
2018-07-03T11:16:53.793Z,91104.00
2018-07-03T11:17:53.842Z,105760.00
2018-07-03T11:18:53.890Z,66304.00
2018-07-03T11:19:54.069Z,68224.00
2018-07-03T11:20:53.989Z,73088.00
2018-07-03T11:21:54.036Z,72640.00
2018-07-03T11:22:54.086Z,77984.00
2018-07-03T11:24:54.185Z,57888.00
2018-07-03T11:25:54.238Z,39808.00
2018-07-03T11:26:54.284Z,35840.00
2018-07-03T11:27:54.334Z,33792.00
2018-07-03T11:28:54.415Z,32384.00
2018-07-03T11:29:54.432Z,31168.00
2018-07-03T11:30:54.482Z,30176.00
2018-07-03T11:31:54.532Z,29440.00
2018-07-03T11:32:54.581Z,29184.00
2018-07-03T11:33:54.629Z,29280.00
2018-07-03T11:34:54.678Z,28544.00
2018-07-03T11:35:54.727Z,29440.00
2018-07-03T11:36:54.776Z,30784.00
2018-07-03T11:37:54.823Z,31232.00
2018-07-03T11:38:54.872Z,30016.00
2018-07-03T11:39:54.920Z,31360.00
2018-07-03T11:40:54.968Z,34112.00
2018-07-03T11:41:55.015Z,52640.00
2018-07-03T11:42:55.118Z,33824.00
2018-07-03T11:43:55.111Z,35552.00
2018-07-03T11:44:55.159Z,89152.00
2018-07-03T11:45:55.206Z,34272.00
2018-07-03T11:46:55.253Z,42784.00
2018-07-03T11:47:55.301Z,39168.00
2018-07-03T11:48:55.348Z,39008.00
2018-07-03T11:49:55.395Z,45792.00
2018-07-03T11:50:55.443Z,41056.00
2018-07-03T11:51:55.490Z,80480.00
2018-07-03T11:52:55.538Z,102496.00
2018-07-03T11:53:55.583Z,119200.00
2018-07-03T11:54:55.632Z,118752.00
2018-07-03T11:55:55.680Z,83808.00
2018-07-03T11:56:55.729Z,120224.00
2018-07-03T11:57:59.209Z,117056.00
2018-07-03T11:58:55.826Z,121056.00
2018-07-03T11:59:55.876Z,111136.00
2018-07-03T12:00:55.925Z,118016.00
2018-07-03T12:01:55.975Z,120704.00
2018-07-03T12:02:56.026Z,109792.00
2018-07-03T12:03:56.095Z,105184.00
2018-07-03T12:04:56.127Z,114016.00
2018-07-03T12:05:56.180Z,118976.00
2018-07-03T12:06:56.229Z,101952.00
2018-07-03T12:07:56.284Z,108672.00
2018-07-03T12:08:56.555Z,121920.00
2018-07-03T12:09:56.385Z,129312.00
2018-07-03T12:10:56.864Z,128800.00
2018-07-03T12:11:56.506Z,125952.00
2018-07-03T12:12:56.565Z,124544.00
2018-07-03T12:13:56.596Z,127456.00
2018-07-03T12:14:56.661Z,129984.00
2018-07-03T12:15:56.706Z,132416.00
2018-07-03T12:16:56.760Z,130752.00
2018-07-03T12:17:56.810Z,125312.00
2018-07-03T12:18:56.864Z,121472.00
2018-07-03T12:19:57.003Z,113856.00
2018-07-03T12:20:56.973Z,107648.00
2018-07-03T12:21:57.027Z,110688.00
2018-07-03T12:22:57.159Z,110656.00
2018-07-03T12:23:57.171Z,109152.00
2018-07-03T12:24:57.198Z,101888.00
2018-07-03T12:25:57.245Z,99040.00
2018-07-03T12:26:57.299Z,95712.00
2018-07-03T12:27:57.355Z,89728.00
2018-07-03T12:28:57.528Z,70432.00
2018-07-03T12:29:57.464Z,65824.00
2018-07-03T12:30:57.519Z,68032.00
2018-07-03T12:31:57.574Z,70400.00
2018-07-03T12:32:57.678Z,64736.00
2018-07-03T12:36:48.777Z,45152.00
2018-07-03T12:38:41.336Z,51360.00
2018-07-03T12:39:41.386Z,79552.00
2018-07-03T12:40:41.439Z,86048.00
2018-07-03T12:41:41.516Z,91136.00
2018-07-03T12:42:41.566Z,93120.00
2018-07-03T12:44:41.648Z,54080.00
2018-07-03T12:45:41.720Z,83136.00
2018-07-03T12:46:41.973Z,72320.00
2018-07-03T12:47:41.822Z,51136.00
2018-07-03T12:48:41.876Z,67264.00
2018-07-03T12:49:41.953Z,98912.00
2018-07-03T12:50:41.961Z,95584.00
2018-07-03T12:51:42.014Z,96768.00
2018-07-03T12:52:42.066Z,99424.00
2018-07-03T12:53:42.119Z,95808.00
2018-07-03T12:54:42.170Z,92864.00
2018-07-03T12:55:42.224Z,94496.00
2018-07-03T12:56:42.275Z,79200.00
2018-07-03T12:57:42.329Z,95680.00
2018-07-03T12:58:42.380Z,90944.00
2018-07-03T12:59:42.432Z,93536.00
2018-07-03T13:00:42.522Z,93984.00
2018-07-03T13:01:42.538Z,91584.00
2018-07-03T13:02:42.591Z,85952.00
2018-07-03T13:03:42.644Z,88960.00
2018-07-03T13:04:42.697Z,75808.00
2018-07-03T13:05:42.751Z,72320.00
2018-07-03T13:06:42.803Z,75872.00
2018-07-03T13:07:42.871Z,101312.00
2018-07-03T13:08:42.908Z,105024.00
2018-07-03T13:09:42.963Z,106880.00
2018-07-03T13:10:43.249Z,90432.00
2018-07-03T13:11:43.068Z,59200.00
2018-07-03T13:12:43.126Z,54368.00
2018-07-03T13:13:43.179Z,76160.00
2018-07-03T13:14:43.226Z,77120.00
2018-07-03T13:15:43.284Z,70720.00
2018-07-03T13:16:43.333Z,55520.00
2018-07-03T13:17:43.386Z,48704.00
2018-07-03T13:18:43.438Z,47744.00
2018-07-03T13:19:43.491Z,47328.00
2018-07-03T13:20:43.552Z,46976.00
2018-07-03T13:21:43.601Z,46176.00
2018-07-03T13:22:43.648Z,44864.00
2018-07-03T13:23:43.701Z,43616.00
2018-07-03T13:24:43.753Z,43136.00
2018-07-03T13:25:43.805Z,44864.00
2018-07-03T13:26:43.858Z,48576.00
2018-07-03T13:27:43.908Z,95712.00
2018-07-03T13:28:43.959Z,97952.00
2018-07-03T13:29:44.012Z,102528.00
2018-07-03T13:30:44.062Z,78656.00
2018-07-03T13:31:44.113Z,58528.00
2018-07-03T13:32:44.165Z,47904.00
2018-07-03T13:33:44.214Z,44512.00
2018-07-03T13:34:44.266Z,43072.00